Time;durP1;ratioP1;P1;durP2;ratioP2;P2;SDS_P1;SDS_P2;PMS_P1;PMS_P2;Temp;Humidity;BMP_temperature;BMP_pressure;BME280_temperature;BME280_humidity;BME280_pressure;Samples;Min_cycle;Max_cycle;Signal;HPM_P1;HPM_P2
2022/03/03 00:02:10;;;;;;;;;;;;;;;;;;5078249;28;20001;-69
2022/03/03 00:04:36;;;;;;;;;;;;;;;;;;5078529;28;19908;-69
2022/03/03 00:07:02;;;;;;;;;;;;;;;;;;5097011;28;19908;-69
2022/03/03 00:09:28;;;;;;;;;;;;;;;;;;5096283;28;19991;-67
2022/03/03 00:11:54;;;;;;;;;;;;;;;;;;5078530;28;19915;-67
2022/03/03 00:14:20;;;;;;;;;;;;;;;;;;5096670;28;19912;-68
2022/03/03 00:16:46;;;;;;;;;;;;;;;;;;5096227;28;20322;-68
2022/03/03 00:19:12;;;;;;;;;;;;;;;;;;5078345;28;19943;-68
2022/03/03 00:21:38;;;;;;;;;;;;;;;;;;5096032;28;19916;-68
2022/03/03 00:24:04;;;;;;;;;;;;;;;;;;5077825;28;20288;-69
2022/03/03 00:26:30;;;;;;;;;;;;;;;;;;5078467;28;19959;-68
2022/03/03 00:28:56;;;;;;;;;;;;;;;;;;5078267;28;19947;-68
2022/03/03 00:31:23;;;;;;;;;;;;;;;;;;5095890;28;20374;-68
2022/03/03 00:33:49;;;;;;;;;;;;;;;;;;5096254;28;19912;-68
2022/03/03 00:36:15;;;;;;;;;;;;;;;;;;5096140;28;19993;-68
2022/03/03 00:38:41;;;;;;;;;;;;;;;;;;5095794;28;19948;-68
2022/03/03 00:41:07;;;;;;;;;;;;;;;;;;5096412;28;20345;-68
2022/03/03 00:43:33;;;;;;;;;;;;;;;;;;5095978;28;19912;-68
2022/03/03 00:45:59;;;;;;;;;;;;;;;;;;5095568;28;20253;-68
2022/03/03 00:48:25;;;;;;;;;;;;;;;;;;5095698;28;19927;-68
2022/03/03 00:50:51;;;;;;;;;;;;;;;;;;5077723;28;19908;-68
2022/03/03 00:53:17;;;;;;;;;;;;;;;;;;5095452;28;20364;-68
2022/03/03 00:55:43;;;;;;;;;;;;;;;;;;5095774;28;19944;-68
2022/03/03 00:58:09;;;;;;;;;;;;;;;;;;5095292;28;19958;-68
2022/03/03 01:00:35;;;;;;;;;;;;;;;;;;5095651;28;19908;-68
2022/03/03 01:03:01;;;;;;;;;;;;;;;;;;5095617;28;19908;-68
2022/03/03 01:05:27;;;;;;;;;;;;;;;;;;5077043;28;20352;-68
2022/03/03 01:07:53;;;;;;;;;;;;;;;;;;5095460;28;19923;-68
2022/03/03 01:10:19;;;;;;;;;;;;;;;;;;5077364;28;19908;-68
2022/03/03 01:12:45;;;;;;;;;;;;;;;;;;5095035;28;20380;-68
2022/03/03 01:15:11;;;;;;;;;;;;;;;;;;5095440;28;19912;-68
2022/03/03 01:17:37;;;;;;;;;;;;;;;;;;5077102;28;19912;-68
2022/03/03 01:20:03;;;;;;;;;;;;;;;;;;5094904;28;20307;-68
2022/03/03 01:22:29;;;;;;;;;;;;;;;;;;5077032;28;19974;-68
2022/03/03 01:24:55;;;;;;;;;;;;;;;;;;5095235;28;19909;-68
2022/03/03 01:27:21;;;;;;;;;;;;;;;;;;5094645;28;19995;-68
2022/03/03 01:29:47;;;;;;;;;;;;;;;;;;5076872;28;20398;-68
2022/03/03 01:32:13;;;;;;;;;;;;;;;;;;5076044;28;19908;-68
2022/03/03 01:34:39;;;;;;;;;;;;;;;;;;5094634;28;20268;-68
2022/03/03 01:37:05;;;;;;;;;;;;;;;;;;5094928;28;19908;-68
2022/03/03 01:39:31;;;;;;;;;;;;;;;;;;5076741;28;19961;-68
2022/03/03 01:41:57;;;;;;;;;;;;;;;;;;5076300;28;20349;-68
2022/03/03 01:44:23;;;;;;;;;;;;;;;;;;5094980;28;19908;-68
2022/03/03 01:46:49;;;;;;;;;;;;;;;;;;5076393;28;19957;-68
2022/03/03 01:49:15;;;;;;;;;;;;;;;;;;5094437;28;19916;-68
2022/03/03 01:51:41;;;;;;;;;;;;;;;;;;5094626;28;19915;-68
2022/03/03 01:54:07;;;;;;;;;;;;;;;;;;5094706;28;19908;-68
2022/03/03 01:56:33;;;;;;;;;;;;;;;;;;5076026;28;19908;-68
2022/03/03 01:58:59;;;;;;;;;;;;;;;;;;5094549;28;19962;-68
2022/03/03 02:01:25;;;;;;;;;;;;;;;;;;5094118;28;19931;-68
2022/03/03 02:03:51;;;;;;;;;;;;;;;;;;5094429;28;19961;-68
2022/03/03 02:06:17;;;;;;;;;;;;;;;;;;5094434;28;19908;-68
2022/03/03 02:08:43;;;;;;;;;;;;;;;;;;5075698;28;19916;-67
2022/03/03 02:11:09;;;;;;;;;;;;;;;;;;5076132;28;19916;-68
2022/03/03 02:13:36;;;;;;;;;;;;;;;;;;5094348;28;20375;-68
2022/03/03 02:16:02;;;;;;;;;;;;;;;;;;5075757;28;19912;-68
2022/03/03 02:18:28;;;;;;;;;;;;;;;;;;5076085;28;19936;-68
2022/03/03 02:20:54;;;;;;;;;;;;;;;;;;5076067;28;19912;-68
2022/03/03 02:23:20;;;;;;;;;;;;;;;;;;5093734;28;19919;-68
2022/03/03 02:25:46;;;;;;;;;;;;;;;;;;5076187;28;19915;-68
2022/03/03 02:28:12;;;;;;;;;;;;;;;;;;5075923;28;20435;-68
2022/03/03 02:30:38;;;;;;;;;;;;;;;;;;5093664;28;19943;-68
2022/03/03 02:33:04;;;;;;;;;;;;;;;;;;5094216;28;20276;-68
2022/03/03 02:35:30;;;;;;;;;;;;;;;;;;5075843;28;19912;-68
2022/03/03 02:37:56;;;;;;;;;;;;;;;;;;5075431;28;20034;-68
2022/03/03 02:40:22;;;;;;;;;;;;;;;;;;5075817;28;20013;-68
2022/03/03 02:42:48;;;;;;;;;;;;;;;;;;5093769;28;19908;-68
2022/03/03 02:45:14;;;;;;;;;;;;;;;;;;5093443;28;19908;-68
2022/03/03 02:47:40;;;;;;;;;;;;;;;;;;5075429;28;19975;-68
2022/03/03 02:50:06;;;;;;;;;;;;;;;;;;5093842;28;20333;-68
2022/03/03 02:52:32;;;;;;;;;;;;;;;;;;5093410;28;19908;-68
2022/03/03 02:54:58;;;;;;;;;;;;;;;;;;5093814;28;20291;-68
2022/03/03 03:00:08;;;;;;;;;;;;;;;;;;5093820;28;20280;-68
2022/03/03 03:02:34;;;;;;;;;;;;;;;;;;5075650;28;19908;-69
2022/03/03 03:05:00;;;;;;;;;;;;;;;;;;5075275;28;19948;-68
2022/03/03 03:07:26;;;;;;;;;;;;;;;;;;5093708;28;19916;-68
2022/03/03 03:09:52;;;;;;;;;;;;;;;;;;5093699;28;19913;-68
2022/03/03 03:12:19;;;;;;;;;;;;;;;;;;5093310;28;19908;-68
2022/03/03 03:14:45;;;;;;;;;;;;;;;;;;5093783;28;19912;-68
2022/03/03 03:17:11;;;;;;;;;;;;;;;;;;5075429;28;19915;-68
2022/03/03 03:19:37;;;;;;;;;;;;;;;;;;5075285;28;19951;-69
2022/03/03 03:22:03;;;;;;;;;;;;;;;;;;5093614;28;19908;-68
2022/03/03 03:24:29;;;;;;;;;;;;;;;;;;5075450;28;19946;-68
2022/03/03 03:26:55;;;;;;;;;;;;;;;;;;5093273;28;19943;-68
2022/03/03 03:29:21;;;;;;;;;;;;;;;;;;5075333;28;20423;-68
2022/03/03 03:31:47;;;;;;;;;;;;;;;;;;5093446;28;19916;-69
2022/03/03 03:34:13;;;;;;;;;;;;;;;;;;5093288;28;19909;-68
2022/03/03 03:36:39;;;;;;;;;;;;;;;;;;5093524;28;19914;-68
2022/03/03 03:39:05;;;;;;;;;;;;;;;;;;5093403;28;19953;-68
2022/03/03 03:41:31;;;;;;;;;;;;;;;;;;5093145;28;19943;-68
2022/03/03 03:43:57;;;;;;;;;;;;;;;;;;5093890;28;20348;-68
2022/03/03 03:46:23;;;;;;;;;;;;;;;;;;5075269;28;19962;-68
2022/03/03 03:48:49;;;;;;;;;;;;;;;;;;5092679;28;19927;-68
2022/03/03 03:51:15;;;;;;;;;;;;;;;;;;5093307;28;19998;-68
2022/03/03 03:53:41;;;;;;;;;;;;;;;;;;5093472;28;20280;-67
2022/03/03 03:56:08;;;;;;;;;;;;;;;;;;5095225;28;19908;-68
2022/03/03 03:58:34;;;;;;;;;;;;;;;;;;5078859;28;19923;-68
2022/03/03 04:01:00;;;;;;;;;;;;;;;;;;5096608;28;19912;-68
2022/03/03 04:03:26;;;;;;;;;;;;;;;;;;5096883;28;19912;-68
2022/03/03 04:05:52;;;;;;;;;;;;;;;;;;5096851;28;20335;-68
2022/03/03 04:08:18;;;;;;;;;;;;;;;;;;5096518;28;19916;-67
2022/03/03 04:10:44;;;;;;;;;;;;;;;;;;5096685;28;19908;-69
2022/03/03 04:13:10;;;;;;;;;;;;;;;;;;5096661;28;19915;-67
2022/03/03 04:15:36;;;;;;;;;;;;;;;;;;5077992;28;19948;-68
2022/03/03 04:18:02;;;;;;;;;;;;;;;;;;5096554;28;19953;-68
2022/03/03 04:20:28;;;;;;;;;;;;;;;;;;5096543;28;19909;-68
2022/03/03 04:22:54;;;;;;;;;;;;;;;;;;5077919;28;20394;-68
2022/03/03 04:25:20;;;;;;;;;;;;;;;;;;5096501;28;20011;-68
2022/03/03 04:27:46;;;;;;;;;;;;;;;;;;5078200;28;19916;-68
2022/03/03 04:30:12;;;;;;;;;;;;;;;;;;5077732;28;19916;-68
2022/03/03 04:32:38;;;;;;;;;;;;;;;;;;5096290;28;19908;-68
2022/03/03 04:35:04;;;;;;;;;;;;;;;;;;5078101;28;19910;-69
2022/03/03 04:37:30;;;;;;;;;;;;;;;;;;5095789;28;19919;-68
2022/03/03 04:39:56;;;;;;;;;;;;;;;;;;5096188;28;20368;-68
2022/03/03 04:42:22;;;;;;;;;;;;;;;;;;5096064;28;19916;-68
2022/03/03 04:44:48;;;;;;;;;;;;;;;;;;5077499;28;19907;-68
2022/03/03 04:47:14;;;;;;;;;;;;;;;;;;5077570;28;19923;-69
2022/03/03 04:49:40;;;;;;;;;;;;;;;;;;5095994;28;19962;-68
2022/03/03 04:52:06;;;;;;;;;;;;;;;;;;5095495;28;19912;-68
2022/03/03 04:54:32;;;;;;;;;;;;;;;;;;5095849;28;19915;-68
2022/03/03 04:56:58;;;;;;;;;;;;;;;;;;5095792;28;19908;-68
2022/03/03 04:59:24;;;;;;;;;;;;;;;;;;5095303;28;19940;-69
2022/03/03 05:01:50;;;;;;;;;;;;;;;;;;5095691;28;19912;-68
2022/03/03 05:04:17;;;;;;;;;;;;;;;;;;5095181;28;19915;-68
2022/03/03 05:06:42;;;;;;;;;;;;;;;;;;5077488;28;19908;-68
2022/03/03 05:09:08;;;;;;;;;;;;;;;;;;5077305;28;20352;-69
2022/03/03 05:11:34;;;;;;;;;;;;;;;;;;5095343;28;19908;-68
2022/03/03 05:14:00;;;;;;;;;;;;;;;;;;5095506;28;19914;-68
2022/03/03 05:16:26;;;;;;;;;;;;;;;;;;5095670;28;20289;-69
2022/03/03 05:18:52;;;;;;;;;;;;;;;;;;5094785;28;19908;-72
2022/03/03 05:21:18;;;;;;;;;;;;;;;;;;5095063;28;19908;-72
2022/03/03 05:23:44;;;;;;;;;;;;;;;;;;5095205;28;20319;-72
2022/03/03 05:26:10;;;;;;;;;;;;;;;;;;5094880;28;19908;-74
2022/03/03 05:28:36;;;;;;;;;;;;;;;;;;5095149;28;19969;-74
2022/03/03 05:31:02;;;;;;;;;;;;;;;;;;5095168;28;20356;-71
2022/03/03 05:33:29;;;;;;;;;;;;;;;;;;5094655;28;19916;-71
2022/03/03 05:35:55;;;;;;;;;;;;;;;;;;5094969;28;19961;-71
2022/03/03 05:38:21;;;;;;;;;;;;;;;;;;5095514;28;20006;-71
2022/03/03 05:40:47;;;;;;;;;;;;;;;;;;5076409;28;19915;-72
2022/03/03 05:43:14;;;;;;;;;;;;;;;;;;5076708;28;19909;-72
2022/03/03 05:45:40;;;;;;;;;;;;;;;;;;5094869;28;20265;-72
2022/03/03 05:48:07;;;;;;;;;;;;;;;;;;5076029;28;20396;-71
2022/03/03 05:50:33;;;;;;;;;;;;;;;;;;5076651;28;20000;-71
2022/03/03 05:53:01;;;;;;;;;;;;;;;;;;5076641;28;19916;-72
2022/03/03 05:55:27;;;;;;;;;;;;;;;;;;5094287;28;19908;-72
2022/03/03 05:57:53;;;;;;;;;;;;;;;;;;5092581;28;19919;-71
2022/03/03 06:00:19;;;;;;;;;;;;;;;;;;5091307;28;19962;-72
2022/03/03 06:02:45;;;;;;;;;;;;;;;;;;5075717;28;19930;-71
2022/03/03 06:05:13;;;;;;;;;;;;;;;;;;5076090;28;19908;-71
2022/03/03 06:07:39;;;;;;;;;;;;;;;;;;5093375;28;20011;-71
2022/03/03 06:10:05;;;;;;;;;;;;;;;;;;5094000;28;19948;-71
2022/03/03 06:12:31;;;;;;;;;;;;;;;;;;5094160;28;19934;-71
2022/03/03 06:14:57;;;;;;;;;;;;;;;;;;5093714;28;19908;-72
2022/03/03 06:17:24;;;;;;;;;;;;;;;;;;5094003;28;19930;-71
2022/03/03 06:19:51;;;;;;;;;;;;;;;;;;5071924;28;20356;-71
2022/03/03 06:22:17;;;;;;;;;;;;;;;;;;5091740;28;19908;-75
2022/03/03 06:24:43;;;;;;;;;;;;;;;;;;5093089;28;20299;-72
2022/03/03 06:27:09;;;;;;;;;;;;;;;;;;5075284;28;20000;-72
2022/03/03 06:29:35;;;;;;;;;;;;;;;;;;5093094;28;19922;-72
2022/03/03 06:32:01;;;;;;;;;;;;;;;;;;5092891;28;19908;-71
2022/03/03 06:34:27;;;;;;;;;;;;;;;;;;5093576;28;19944;-72
2022/03/03 06:36:54;;;;;;;;;;;;;;;;;;5070964;28;19915;-71
2022/03/03 06:39:20;;;;;;;;;;;;;;;;;;5092804;28;19908;-72
2022/03/03 06:41:47;;;;;;;;;;;;;;;;;;5090828;28;19912;-72
2022/03/03 06:44:13;;;;;;;;;;;;;;;;;;5090792;28;20399;-72
2022/03/03 06:46:39;;;;;;;;;;;;;;;;;;5091083;28;19908;-71
2022/03/03 06:49:05;;;;;;;;;;;;;;;;;;5091127;28;19927;-71
2022/03/03 06:51:31;;;;;;;;;;;;;;;;;;5089633;28;20427;-71
2022/03/03 06:53:57;;;;;;;;;;;;;;;;;;5073292;28;19962;-71
2022/03/03 06:56:23;;;;;;;;;;;;;;;;;;5091924;28;19914;-72
2022/03/03 06:58:49;;;;;;;;;;;;;;;;;;5092237;28;19912;-72
2022/03/03 07:01:15;;;;;;;;;;;;;;;;;;5093520;28;19931;-72
2022/03/03 07:03:41;;;;;;;;;;;;;;;;;;5087074;28;19909;-72
2022/03/03 07:06:07;;;;;;;;;;;;;;;;;;5090807;28;19908;-71
2022/03/03 07:08:33;;;;;;;;;;;;;;;;;;5092010;28;19916;-71
2022/03/03 07:11:00;;;;;;;;;;;;;;;;;;5092961;28;19916;-73
2022/03/03 07:13:26;;;;;;;;;;;;;;;;;;5074653;28;20388;-71
2022/03/03 07:15:52;;;;;;;;;;;;;;;;;;5093095;28;19977;-72
2022/03/03 07:18:18;;;;;;;;;;;;;;;;;;5074446;28;19939;-72
2022/03/03 07:20:44;;;;;;;;;;;;;;;;;;5074911;28;19912;-71
2022/03/03 07:23:10;;;;;;;;;;;;;;;;;;5075091;28;19981;-70
2022/03/03 07:25:36;;;;;;;;;;;;;;;;;;5074443;28;19947;-70
2022/03/03 07:28:02;;;;;;;;;;;;;;;;;;5090984;28;19969;-69
2022/03/03 07:30:28;;;;;;;;;;;;;;;;;;5092278;28;19908;-68
2022/03/03 07:32:54;;;;;;;;;;;;;;;;;;5094187;28;20373;-72
2022/03/03 07:35:20;;;;;;;;;;;;;;;;;;5094433;28;19951;-71
2022/03/03 07:37:46;;;;;;;;;;;;;;;;;;5093081;28;19911;-71
2022/03/03 07:40:12;;;;;;;;;;;;;;;;;;5093026;28;20281;-70
2022/03/03 07:42:39;;;;;;;;;;;;;;;;;;5094834;28;19915;-70
2022/03/03 07:45:05;;;;;;;;;;;;;;;;;;5093503;28;19999;-70
2022/03/03 07:47:31;;;;;;;;;;;;;;;;;;5092613;28;19965;-72
2022/03/03 07:49:57;;;;;;;;;;;;;;;;;;5095105;28;19920;-72
2022/03/03 07:52:23;;;;;;;;;;;;;;;;;;5094375;28;19912;-72
2022/03/03 07:54:49;;;;;;;;;;;;;;;;;;5095690;28;19908;-72
2022/03/03 07:57:15;;;;;;;;;;;;;;;;;;5096039;28;19915;-73
2022/03/03 07:59:41;;;;;;;;;;;;;;;;;;5095436;28;20411;-71
2022/03/03 08:02:07;;;;;;;;;;;;;;;;;;5093799;28;19912;-72
2022/03/03 08:04:34;;;;;;;;;;;;;;;;;;5096106;28;19938;-69
2022/03/03 08:07:00;;;;;;;;;;;;;;;;;;5077456;28;19981;-70
2022/03/03 08:09:26;;;;;;;;;;;;;;;;;;5096116;28;20376;-71
2022/03/03 08:11:52;;;;;;;;;;;;;;;;;;5093140;28;19908;-70
2022/03/03 08:14:19;;;;;;;;;;;;;;;;;;5077644;28;20280;-71
2022/03/03 08:16:45;;;;;;;;;;;;;;;;;;5077734;28;19908;-69
2022/03/03 08:19:12;;;;;;;;;;;;;;;;;;5092590;28;19916;-71
2022/03/03 08:21:38;;;;;;;;;;;;;;;;;;5095146;28;19912;-69
2022/03/03 08:24:04;;;;;;;;;;;;;;;;;;5077743;28;19915;-71
2022/03/03 08:26:31;;;;;;;;;;;;;;;;;;5095919;28;19912;-73
2022/03/03 08:28:59;;;;;;;;;;;;;;;;;;5076431;28;19965;-70
2022/03/03 08:31:25;;;;;;;;;;;;;;;;;;5077476;28;19958;-71
2022/03/03 08:33:51;;;;;;;;;;;;;;;;;;5077567;28;19908;-69
2022/03/03 08:36:17;;;;;;;;;;;;;;;;;;5077012;28;19916;-71
2022/03/03 08:38:45;;;;;;;;;;;;;;;;;;5095256;28;19908;-72
2022/03/03 08:41:11;;;;;;;;;;;;;;;;;;5094871;28;19915;-74
2022/03/03 08:43:37;;;;;;;;;;;;;;;;;;5076562;28;19951;-71
2022/03/03 08:46:03;;;;;;;;;;;;;;;;;;5095403;28;19947;-69
2022/03/03 08:48:30;;;;;;;;;;;;;;;;;;5094985;28;19931;-70
2022/03/03 08:50:56;;;;;;;;;;;;;;;;;;5094804;28;19912;-70
2022/03/03 08:53:22;;;;;;;;;;;;;;;;;;5094986;28;20356;-71
2022/03/03 08:55:48;;;;;;;;;;;;;;;;;;5094917;28;19909;-71
2022/03/03 08:58:14;;;;;;;;;;;;;;;;;;5094815;28;20357;-72
2022/03/03 09:00:40;;;;;;;;;;;;;;;;;;5094757;28;20007;-72
2022/03/03 09:03:06;;;;;;;;;;;;;;;;;;5074760;28;19915;-71
2022/03/03 09:05:32;;;;;;;;;;;;;;;;;;5089830;28;19908;-72
2022/03/03 09:07:58;;;;;;;;;;;;;;;;;;5074274;28;19912;-72
2022/03/03 09:10:24;;;;;;;;;;;;;;;;;;5091259;28;19962;-72
2022/03/03 09:12:51;;;;;;;;;;;;;;;;;;5089921;28;19912;-72
2022/03/03 09:15:17;;;;;;;;;;;;;;;;;;5092812;28;19908;-72
2022/03/03 09:17:43;;;;;;;;;;;;;;;;;;5091687;28;19916;-72
2022/03/03 09:20:09;;;;;;;;;;;;;;;;;;5090702;28;19912;-72
2022/03/03 09:22:35;;;;;;;;;;;;;;;;;;5092489;28;19917;-70
2022/03/03 09:25:01;;;;;;;;;;;;;;;;;;5072467;28;19908;-71
2022/03/03 09:27:28;;;;;;;;;;;;;;;;;;5073828;28;19908;-72
2022/03/03 09:29:54;;;;;;;;;;;;;;;;;;5072467;28;19923;-71
2022/03/03 09:32:20;;;;;;;;;;;;;;;;;;5092884;28;19915;-74
2022/03/03 09:34:46;;;;;;;;;;;;;;;;;;5075857;28;19908;-73
2022/03/03 09:37:12;;;;;;;;;;;;;;;;;;5093754;28;20427;-71
2022/03/03 09:39:39;;;;;;;;;;;;;;;;;;5094091;28;19908;-72
2022/03/03 09:42:05;;;;;;;;;;;;;;;;;;5094618;28;20284;-71
2022/03/03 09:44:31;;;;;;;;;;;;;;;;;;5094489;28;19908;-73
2022/03/03 09:46:57;;;;;;;;;;;;;;;;;;5075465;28;19931;-73
2022/03/03 09:49:23;;;;;;;;;;;;;;;;;;5094397;28;20019;-71
2022/03/03 09:51:50;;;;;;;;;;;;;;;;;;5094260;28;20456;-70
2022/03/03 09:54:16;;;;;;;;;;;;;;;;;;5093178;28;20265;-72
2022/03/03 09:56:42;;;;;;;;;;;;;;;;;;5094174;28;19915;-72
2022/03/03 09:59:08;;;;;;;;;;;;;;;;;;5093641;28;19912;-72
2022/03/03 10:01:34;;;;;;;;;;;;;;;;;;5090922;28;19915;-71
2022/03/03 10:04:00;;;;;;;;;;;;;;;;;;5094095;28;19912;-71
2022/03/03 10:06:26;;;;;;;;;;;;;;;;;;5094086;28;19909;-70
2022/03/03 10:08:51;;;;;;;;;;;;;;;;;;5075206;28;20458;-71
2022/03/03 10:11:18;;;;;;;;;;;;;;;;;;5075464;28;19915;-72
2022/03/03 10:13:44;;;;;;;;;;;;;;;;;;5075287;28;20355;-71
2022/03/03 10:16:10;;;;;;;;;;;;;;;;;;5093912;28;19919;-72
2022/03/03 10:18:36;;;;;;;;;;;;;;;;;;5093720;28;19908;-70
2022/03/03 10:21:02;;;;;;;;;;;;;;;;;;5093490;28;19954;-73
2022/03/03 10:23:29;;;;;;;;;;;;;;;;;;5093542;28;19918;-70
2022/03/03 10:25:55;;;;;;;;;;;;;;;;;;5069630;28;20295;-71
2022/03/03 10:28:21;;;;;;;;;;;;;;;;;;5074624;28;20360;-71
2022/03/03 10:30:47;;;;;;;;;;;;;;;;;;5093221;28;19947;-71
2022/03/03 10:33:13;;;;;;;;;;;;;;;;;;5092218;28;19908;-71
2022/03/03 10:35:39;;;;;;;;;;;;;;;;;;5091982;28;19919;-72
2022/03/03 10:38:05;;;;;;;;;;;;;;;;;;5092812;28;19908;-72
2022/03/03 10:40:31;;;;;;;;;;;;;;;;;;5093073;28;19943;-70
2022/03/03 10:42:57;;;;;;;;;;;;;;;;;;5074293;28;20417;-72
2022/03/03 10:45:23;;;;;;;;;;;;;;;;;;5075485;28;19908;-72
2022/03/03 10:47:49;;;;;;;;;;;;;;;;;;5075006;28;20418;-73
2022/03/03 10:50:15;;;;;;;;;;;;;;;;;;5093119;28;19950;-74
2022/03/03 10:52:41;;;;;;;;;;;;;;;;;;5093316;28;19908;-70
2022/03/03 10:55:10;;;;;;;;;;;;;;;;;;5093357;28;19908;-72
2022/03/03 10:57:39;;;;;;;;;;;;;;;;;;5092655;28;19908;-72
2022/03/03 11:00:06;;;;;;;;;;;;;;;;;;5073968;28;19985;-71
2022/03/03 11:03:55;;;;;;;;;;;;;;;;;;5089316;27;20272;-72
2022/03/03 11:06:21;;;;;;;;;;;;;;;;;;5089751;28;19913;-70
2022/03/03 11:08:47;;;;;;;;;;;;;;;;;;5090674;28;19916;-73
2022/03/03 11:11:13;;;;;;;;;;;;;;;;;;5089997;28;20361;-72
2022/03/03 11:15:36;;;;;;;;;;;;;;;;;;5151891;27;20022;-70
2022/03/03 11:21:20;;;;;;;;;;;;;;;;;;5110916;27;19916;-71
2022/03/03 11:23:46;;;;;;;;;;;;;;;;;;5095877;28;19923;-69
2022/03/03 11:26:12;;;;;;;;;;;;;;;;;;5086744;28;19970;-70
2022/03/03 11:29:38;;;;;;;;;;;;;;;;;;5088603;28;19922;-76
2022/03/03 11:32:04;;;;;;;;;;;;;;;;;;5088353;28;20438;-71
2022/03/03 11:35:35;;;;;;;;;;;;;;;;;;5109063;27;20376;-69
2022/03/03 11:39:49;;;;;;;;;;;;;;;;;;5108428;27;19920;-68
2022/03/03 11:42:15;;;;;;;;;;;;;;;;;;5107778;28;20379;-70
2022/03/03 11:44:41;;;;;;;;;;;;;;;;;;5109484;28;19927;-70
2022/03/03 11:49:42;;;;;;;;;;;;;;;;;;5028612;28;19920;-74
2022/03/03 11:52:08;;;;;;;;;;;;;;;;;;5028351;28;19914;-72
2022/03/03 11:57:17;;;;;;;;;;;;;;;;;;5090601;27;19913;-70
2022/03/03 11:59:43;;;;;;;;;;;;;;;;;;5088351;28;19912;-69
2022/03/03 12:02:09;;;;;;;;;;;;;;;;;;5088782;28;19915;-73
2022/03/03 12:04:37;;;;;;;;;;;;;;;;;;5087713;28;19908;-71
2022/03/03 12:07:03;;;;;;;;;;;;;;;;;;5088483;28;19919;-72
2022/03/03 12:09:34;;;;;;;;;;;;;;;;;;5088773;28;19909;-72
2022/03/03 12:12:00;;;;;;;;;;;;;;;;;;5087649;28;20497;-72
2022/03/03 12:14:26;;;;;;;;;;;;;;;;;;5089544;28;19962;-73
2022/03/03 12:16:52;;;;;;;;;;;;;;;;;;5089317;28;19924;-73
2022/03/03 12:19:18;;;;;;;;;;;;;;;;;;5090438;28;19948;-70
2022/03/03 12:21:44;;;;;;;;;;;;;;;;;;5090038;28;20407;-73
2022/03/03 12:24:10;;;;;;;;;;;;;;;;;;5090634;28;19912;-71
2022/03/03 12:26:36;;;;;;;;;;;;;;;;;;5090613;28;19908;-71
2022/03/03 12:29:02;;;;;;;;;;;;;;;;;;5090131;28;19915;-72
2022/03/03 12:31:29;;;;;;;;;;;;;;;;;;5090420;28;20428;-71
2022/03/03 12:33:54;;;;;;;;;;;;;;;;;;5090206;28;20360;-73
2022/03/03 12:36:20;;;;;;;;;;;;;;;;;;5090079;28;19923;-72
2022/03/03 12:38:46;;;;;;;;;;;;;;;;;;5088976;28;19983;-70
2022/03/03 12:41:12;;;;;;;;;;;;;;;;;;5090241;28;19908;-70
2022/03/03 12:43:38;;;;;;;;;;;;;;;;;;5089818;28;19954;-71
2022/03/03 12:47:40;;;;;;;;;;;;;;;;;;5091005;27;19916;-69
2022/03/03 12:50:06;;;;;;;;;;;;;;;;;;5090900;28;20325;-70
2022/03/03 12:52:32;;;;;;;;;;;;;;;;;;5090992;28;20022;-82
2022/03/03 12:54:58;;;;;;;;;;;;;;;;;;5091456;28;19943;-82
2022/03/03 12:57:24;;;;;;;;;;;;;;;;;;5090122;28;19951;-82
2022/03/03 12:59:50;;;;;;;;;;;;;;;;;;5091635;28;20003;-82
2022/03/03 13:03:39;;;;;;;;;;;;;;;;;;5131599;27;20006;-80
2022/03/03 13:06:05;;;;;;;;;;;;;;;;;;5132291;28;20006;-78
2022/03/03 13:08:32;;;;;;;;;;;;;;;;;;5132116;28;19969;-78
2022/03/03 13:10:58;;;;;;;;;;;;;;;;;;5131386;28;20329;-78
2022/03/03 13:13:24;;;;;;;;;;;;;;;;;;5131819;27;19914;-73
2022/03/03 13:15:50;;;;;;;;;;;;;;;;;;5132099;28;19919;-74
2022/03/03 13:18:17;;;;;;;;;;;;;;;;;;5131436;27;19916;-75
2022/03/03 13:20:43;;;;;;;;;;;;;;;;;;5131598;27;19907;-74
2022/03/03 13:23:09;;;;;;;;;;;;;;;;;;5129455;28;19923;-75
2022/03/03 13:25:34;;;;;;;;;;;;;;;;;;5127106;28;19907;-77
2022/03/03 13:28:01;;;;;;;;;;;;;;;;;;5126635;28;19908;-74
2022/03/03 13:30:27;;;;;;;;;;;;;;;;;;5131516;27;19908;-76
2022/03/03 13:32:53;;;;;;;;;;;;;;;;;;5129727;27;19907;-76
2022/03/03 13:35:19;;;;;;;;;;;;;;;;;;5130659;28;19922;-77
2022/03/03 13:37:45;;;;;;;;;;;;;;;;;;5129273;28;19908;-77
2022/03/03 13:40:11;;;;;;;;;;;;;;;;;;5130490;28;19915;-77
2022/03/03 13:42:37;;;;;;;;;;;;;;;;;;5128411;27;19916;-80
2022/03/03 13:45:03;;;;;;;;;;;;;;;;;;5128445;28;19908;-76
2022/03/03 13:47:29;;;;;;;;;;;;;;;;;;5129719;28;20424;-75
2022/03/03 13:49:55;;;;;;;;;;;;;;;;;;5129000;28;19911;-75
2022/03/03 13:54:49;;;;;;;;;;;;;;;;;;5132322;27;19922;-72
2022/03/03 13:57:15;;;;;;;;;;;;;;;;;;5134139;28;19912;-78
2022/03/03 14:01:29;;;;;;;;;;;;;;;;;;5091273;28;19916;-75
2022/03/03 14:05:06;;;;;;;;;;;;;;;;;;5111460;27;20381;-76
2022/03/03 14:07:32;;;;;;;;;;;;;;;;;;5110571;28;19917;-74
2022/03/03 14:11:02;;;;;;;;;;;;;;;;;;5111412;27;19922;-78
2022/03/03 14:13:28;;;;;;;;;;;;;;;;;;5110860;28;19919;-77
2022/03/03 14:17:04;;;;;;;;;;;;;;;;;;5111660;27;19916;-74
2022/03/03 14:19:30;;;;;;;;;;;;;;;;;;5111193;28;20003;-75
2022/03/03 14:21:56;;;;;;;;;;;;;;;;;;5111332;28;19999;-74
2022/03/03 14:26:50;;;;;;;;;;;;;;;;;;5111313;27;20449;-74
2022/03/03 14:29:17;;;;;;;;;;;;;;;;;;5111393;28;20369;-71
2022/03/03 14:33:13;;;;;;;;;;;;;;;;;;5111718;27;20401;-67
2022/03/03 14:35:39;;;;;;;;;;;;;;;;;;5110942;28;19914;-67
2022/03/03 14:38:05;;;;;;;;;;;;;;;;;;5111393;28;19943;-67
2022/03/03 14:40:31;;;;;;;;;;;;;;;;;;5107712;28;19958;-67
2022/03/03 14:45:07;;;;;;;;;;;;;;;;;;5091562;27;20277;-68
2022/03/03 14:47:33;;;;;;;;;;;;;;;;;;5091207;28;20415;-68
2022/03/03 14:49:59;;;;;;;;;;;;;;;;;;5090738;28;19909;-68
2022/03/03 14:54:54;;;;;;;;;;;;;;;;;;5090897;27;19923;-67
2022/03/03 14:57:21;;;;;;;;;;;;;;;;;;5090955;28;19995;-67
2022/03/03 14:59:47;;;;;;;;;;;;;;;;;;5089673;28;19908;-67
2022/03/03 15:02:13;;;;;;;;;;;;;;;;;;5090681;28;20772;-67
2022/03/03 15:05:26;;;;;;;;;;;;;;;;;;5152831;27;20010;-67
2022/03/03 15:07:52;;;;;;;;;;;;;;;;;;5152626;27;19911;-67
2022/03/03 15:10:18;;;;;;;;;;;;;;;;;;5152184;27;19920;-68
2022/03/03 15:12:44;;;;;;;;;;;;;;;;;;5152708;27;19908;-68
2022/03/03 15:17:43;;;;;;;;;;;;;;;;;;5111258;27;19916;-67
2022/03/03 15:20:09;;;;;;;;;;;;;;;;;;5111525;28;19918;-67
2022/03/03 15:24:57;;;;;;;;;;;;;;;;;;5111188;27;19916;-67
2022/03/03 15:27:23;;;;;;;;;;;;;;;;;;5110279;28;19999;-68
2022/03/03 15:29:49;;;;;;;;;;;;;;;;;;5110282;28;19996;-68
2022/03/03 15:32:15;;;;;;;;;;;;;;;;;;5109814;28;19908;-68
2022/03/03 15:37:25;;;;;;;;;;;;;;;;;;5111053;28;19915;-68
2022/03/03 15:39:52;;;;;;;;;;;;;;;;;;5111533;28;19908;-68
2022/03/03 15:42:18;;;;;;;;;;;;;;;;;;5109990;28;19990;-68
2022/03/03 15:44:44;;;;;;;;;;;;;;;;;;5110772;28;20411;-68
2022/03/03 15:47:10;;;;;;;;;;;;;;;;;;5109794;28;19908;-67
2022/03/03 15:49:36;;;;;;;;;;;;;;;;;;5111247;28;19908;-68
2022/03/03 15:52:02;;;;;;;;;;;;;;;;;;5110719;28;19912;-67
2022/03/03 15:54:28;;;;;;;;;;;;;;;;;;5111156;28;20257;-68
2022/03/03 15:58:02;;;;;;;;;;;;;;;;;;5092083;28;19923;-67
2022/03/03 16:09:28;;;;;;;;;;;;;;;;;;5112331;27;20462;-68
2022/03/03 16:14:07;;;;;;;;;;;;;;;;;;5111432;27;20392;-66
2022/03/03 16:17:28;;;;;;;433.20;210.90;;;;;;;;;;5103319;27;20429;-68
2022/03/03 16:22:39;;;;;;;;;;;;;;;;;;5091570;27;19919;-68
2022/03/03 16:25:05;;;;;;;;;;;;;;;;;;5089850;28;19919;-68
2022/03/03 16:27:31;;;;;;;;;;;;;;;;;;5089432;28;19966;-67
2022/03/03 16:29:57;;;;;;;;;;;;;;;;;;5089800;28;19991;-68
2022/03/03 16:32:23;;;;;;;;;;;;;;;;;;5091126;28;19908;-67
2022/03/03 16:34:49;;;;;;;;;;;;;;;;;;5090589;28;19909;-68
2022/03/03 16:37:15;;;;;;;;;;;;;;;;;;5091149;28;19909;-68
2022/03/03 16:39:41;;;;;;;;;;;;;;;;;;5090969;28;19909;-67
2022/03/03 16:42:07;;;;;;;;;;;;;;;;;;5089181;28;19920;-67
2022/03/03 16:44:33;;;;;;;;;;;;;;;;;;5090892;28;19951;-68
2022/03/03 16:46:59;;;;;;;;;;;;;;;;;;5089512;28;19990;-67
2022/03/03 16:49:25;;;;;;;;;;;;;;;;;;5090441;28;19919;-68
2022/03/03 16:51:51;;;;;;;;;;;;;;;;;;5091097;28;19908;-68
2022/03/03 16:54:17;;;;;;;;;;;;;;;;;;5090797;28;19919;-68
2022/03/03 16:56:43;;;;;;;;;;;;;;;;;;5090283;28;19909;-68
2022/03/03 16:59:09;;;;;;;;;;;;;;;;;;5090638;28;19915;-68
2022/03/03 17:01:36;;;;;;;;;;;;;;;;;;5088828;28;19924;-68
2022/03/03 17:04:02;;;;;;;;;;;;;;;;;;5089545;28;19912;-68
2022/03/03 17:06:28;;;;;;;;;;;;;;;;;;5090557;28;20013;-68
2022/03/03 17:08:55;;;;;;;;;;;;;;;;;;5090190;28;20441;-68
2022/03/03 17:11:21;;;;;;;;;;;;;;;;;;5089147;28;20007;-68
2022/03/03 17:13:48;;;;;;;;;;;;;;;;;;5090434;28;19908;-68
2022/03/03 17:16:14;;;;;;;;;;;;;;;;;;5089829;28;19915;-68
2022/03/03 17:18:40;;;;;;;;;;;;;;;;;;5090132;28;19909;-68
2022/03/03 17:21:06;;;;;;;;;;;;;;;;;;5097831;28;19973;-68
2022/03/03 17:23:32;;;;;;;;;;;;;;;;;;5110093;28;19908;-68
2022/03/03 17:25:58;;;;;;;;;;;;;;;;;;5110599;28;20397;-68
2022/03/03 17:28:24;;;;;;;;;;;;;;;;;;5110903;28;20001;-68
2022/03/03 17:30:50;;;;;;;;;;;;;;;;;;5091641;28;20280;-68
2022/03/03 17:33:16;;;;;;;;;;;;;;;;;;5100650;28;20003;-70
2022/03/03 17:35:42;;;;;;;;;;;;;;;;;;5096714;28;19943;-69
2022/03/03 17:38:08;;;;;;;;;;;;;;;;;;5096187;28;19974;-68